createdAt,value
2023-02-12T00:00:00.013Z,-19999.38
2023-02-12T00:01:03.491Z,-20000.66
2023-02-12T00:02:06.627Z,-19679.81
2023-02-12T00:03:09.900Z,-19999.00
2023-02-12T00:04:12.977Z,-19679.63
2023-02-12T00:05:16.945Z,-19678.03
2023-02-12T00:06:20.181Z,-19678.03
2023-02-12T00:07:23.300Z,-19679.81
2023-02-12T00:08:26.422Z,-19678.75
2023-02-12T00:09:29.543Z,-19679.63
2023-02-12T00:10:32.664Z,-19680.00
2023-02-12T00:11:35.787Z,-19680.53
2023-02-12T00:12:39.027Z,-19678.75
2023-02-12T00:13:42.513Z,-19676.78
2023-02-12T00:14:45.631Z,-19675.88
2023-02-12T00:15:48.908Z,-19355.97
2023-02-12T00:16:52.116Z,-19353.69
2023-02-12T00:17:55.356Z,-19034.50
2023-02-12T00:18:59.801Z,-19355.28
2023-02-12T00:20:03.400Z,-19034.16
2023-02-12T00:21:09.160Z,-19034.00
2023-02-12T00:22:12.403Z,-18713.91
2023-02-12T00:23:15.766Z,-18392.81
2023-02-12T00:24:18.887Z,-18072.75
2023-02-12T00:25:22.495Z,-18073.75
2023-02-12T00:26:25.992Z,-17754.59
2023-02-12T00:27:29.331Z,-17755.59
2023-02-12T00:28:32.617Z,-17755.59
2023-02-12T00:29:35.815Z,-17436.22
2023-02-12T00:30:42.332Z,-17755.91
2023-02-12T00:31:45.481Z,-17435.41
2023-02-12T00:32:48.541Z,-17114.59
2023-02-12T00:33:51.427Z,-16792.84
2023-02-12T00:34:54.799Z,-16793.00
2023-02-12T00:35:58.386Z,-16795.66
2023-02-12T00:37:01.268Z,-16155.34
2023-02-12T00:38:04.029Z,-15834.66
2023-02-12T00:39:06.683Z,-15834.50
2023-02-12T00:40:10.034Z,-15834.50
2023-02-12T00:41:14.472Z,-15513.78
2023-02-12T00:42:17.046Z,-14873.66
2023-02-12T00:43:20.054Z,-14553.34
2023-02-12T00:44:22.809Z,-14234.34
2023-02-12T00:45:25.329Z,-13594.63
2023-02-12T00:46:27.986Z,-13595.41
2023-02-12T00:47:30.612Z,-13592.94
2023-02-12T00:48:34.168Z,-13592.53
2023-02-12T00:49:36.693Z,-12633.19
2023-02-12T00:50:41.291Z,-12311.97
2023-02-12T00:51:43.902Z,-11993.16
2023-02-12T00:52:46.456Z,-11992.69
2023-02-12T00:53:49.178Z,-11992.69
2023-02-12T00:54:51.697Z,-11671.81
2023-02-12T00:55:54.740Z,-11672.16
2023-02-12T00:56:57.992Z,-11350.50
2023-02-12T00:58:04.817Z,-10390.53
2023-02-12T00:59:07.939Z,-10390.97
2023-02-12T01:00:12.110Z,-11031.84
2023-02-12T01:01:15.162Z,-10070.75
2023-02-12T01:02:18.286Z,-9430.00
2023-02-12T01:03:22.583Z,-9429.81
2023-02-12T01:04:25.194Z,-9108.94
2023-02-12T01:05:28.049Z,-9108.75
2023-02-12T01:06:30.514Z,-8787.03
2023-02-12T01:07:33.142Z,-8467.59
2023-02-12T01:08:35.904Z,-8467.31
2023-02-12T01:09:38.646Z,-7505.06
2023-02-12T01:10:42.991Z,-6862.97
2023-02-12T01:11:45.886Z,-5259.38
2023-02-12T01:12:49.236Z,-4108.94
2023-02-12T01:13:51.884Z,-1965.34
2023-02-12T01:14:54.511Z,-771.16
2023-02-12T01:16:18.342Z,-2168.75
2023-02-12T01:17:20.912Z,1482.66
2023-02-12T01:18:23.432Z,1665.84
2023-02-12T01:19:26.316Z,1600.53
2023-02-12T01:20:29.073Z,1690.94
2023-02-12T01:21:34.358Z,1070.84
2023-02-12T01:22:37.963Z,1454.91
2023-02-12T01:23:41.564Z,2692.97
2023-02-12T01:24:44.101Z,3537.03
2023-02-12T01:25:46.980Z,4182.75
2023-02-12T01:26:49.481Z,3569.72
2023-02-12T01:27:54.164Z,867.25
2023-02-12T01:29:03.643Z,-307.84
2023-02-12T01:30:08.570Z,430.31
2023-02-12T01:31:13.364Z,279.78
2023-02-12T01:32:16.029Z,1364.50
2023-02-12T01:33:18.526Z,1279.16
2023-02-12T01:34:21.067Z,242.16
2023-02-12T01:35:23.573Z,-576.59
2023-02-12T01:36:27.538Z,-3118.84
2023-02-12T01:37:30.056Z,-3223.38
2023-02-12T01:38:32.812Z,-4921.44
2023-02-12T01:39:35.942Z,-6224.75
2023-02-12T01:40:38.695Z,-7507.94
2023-02-12T01:41:44.459Z,-9752.75
2023-02-12T01:42:47.585Z,-8789.03
2023-02-12T01:44:30.787Z,-11675.34
2023-02-12T01:45:45.568Z,-12634.75
2023-02-12T01:46:50.540Z,-12312.94
2023-02-12T01:47:53.598Z,-11992.31
2023-02-12T01:48:56.111Z,-12634.63
2023-02-12T01:49:58.885Z,-12634.16
2023-02-12T01:51:03.917Z,-13596.06
2023-02-12T01:52:09.080Z,-14235.69
2023-02-12T01:53:13.517Z,-12952.38
2023-02-12T01:54:20.121Z,-14234.75
2023-02-12T01:55:23.003Z,-14234.50
2023-02-12T01:56:26.012Z,-14874.50
2023-02-12T01:57:32.364Z,-15193.38
2023-02-12T01:58:39.687Z,-15195.81
2023-02-12T01:59:48.690Z,-14233.13
2023-02-12T02:00:51.809Z,-14233.69
2023-02-12T02:01:55.594Z,-14874.63
2023-02-12T02:03:02.464Z,-15196.66
2023-02-12T02:04:13.547Z,-15517.44
2023-02-12T02:05:44.377Z,-15837.31
2023-02-12T02:07:08.980Z,-16477.28
2023-02-12T02:08:13.302Z,-16153.69
2023-02-12T02:09:17.752Z,-16475.44
2023-02-12T02:10:20.984Z,-16154.59
2023-02-12T02:11:42.601Z,-16156.09
2023-02-12T02:13:04.188Z,-16476.06
2023-02-12T02:14:26.272Z,-16474.53
2023-02-12T02:15:32.281Z,-17435.09
2023-02-12T02:16:36.955Z,-17435.25
2023-02-12T02:18:10.321Z,-17756.88
2023-02-12T02:19:31.798Z,-16793.47
2023-02-12T02:21:20.524Z,-17756.22
2023-02-12T02:22:49.687Z,-17757.38
2023-02-12T02:24:14.173Z,-17437.34
2023-02-12T02:26:05.649Z,-17756.22
2023-02-12T02:27:16.451Z,-17755.41
2023-02-12T02:29:27.136Z,-17757.56
2023-02-12T02:30:46.471Z,-17757.56
2023-02-12T02:32:07.147Z,-17756.88
2023-02-12T02:33:38.068Z,-17758.69
2023-02-12T02:34:50.310Z,-17758.69
2023-02-12T02:36:05.786Z,-17757.88
2023-02-12T02:37:19.945Z,-17436.06
2023-02-12T02:38:48.508Z,-17437.34
2023-02-12T02:40:12.158Z,-17756.56
2023-02-12T02:41:30.769Z,-17758.03
2023-02-12T02:42:58.781Z,-17757.56
2023-02-12T02:44:08.129Z,-17438.00
2023-02-12T02:45:16.249Z,-16798.16
2023-02-12T02:46:36.634Z,-17758.19
2023-02-12T02:48:05.128Z,-17437.03
2023-02-12T02:49:13.843Z,-17436.53
2023-02-12T02:50:21.209Z,-17436.69
2023-02-12T02:51:32.261Z,-17436.69
2023-02-12T02:52:57.690Z,-17756.56
2023-02-12T02:54:09.574Z,-17758.38
2023-02-12T02:55:15.694Z,-17435.41
2023-02-12T02:56:22.255Z,-17758.84
2023-02-12T02:57:38.862Z,-17758.19
2023-02-12T02:58:57.458Z,-17757.72
2023-02-12T03:00:14.355Z,-17756.88
2023-02-12T03:01:26.048Z,-17757.22
2023-02-12T03:02:33.460Z,-17434.78
2023-02-12T03:03:45.584Z,-17437.03
2023-02-12T03:05:16.273Z,-17436.69
2023-02-12T03:06:32.864Z,-17436.53
2023-02-12T03:07:41.473Z,-17116.03
2023-02-12T03:08:51.347Z,-17436.06
2023-02-12T03:09:56.718Z,-17438.63
2023-02-12T03:11:16.094Z,-17438.31
2023-02-12T03:12:50.867Z,-18078.41
2023-02-12T03:14:02.985Z,-17759.84
2023-02-12T03:15:17.504Z,-18081.22
2023-02-12T03:16:29.811Z,-18083.56
2023-02-12T03:17:39.468Z,-18080.38
2023-02-12T03:19:10.322Z,-18078.41
2023-02-12T03:20:22.318Z,-18400.59
2023-02-12T03:21:48.711Z,-18720.44
2023-02-12T03:23:14.033Z,-18719.06
2023-02-12T03:24:26.876Z,-18719.59
2023-02-12T03:25:35.776Z,-18721.13
2023-02-12T03:26:46.919Z,-18722.50
2023-02-12T03:27:59.678Z,-18721.13
2023-02-12T03:29:02.285Z,-18402.97
2023-02-12T03:30:07.199Z,-18724.22
2023-02-12T03:31:31.147Z,-18723.53
2023-02-12T03:32:44.881Z,-19043.75
2023-02-12T03:34:34.687Z,-19043.22
2023-02-12T03:35:55.969Z,-19043.41
2023-02-12T03:37:03.745Z,-19043.03
2023-02-12T03:38:17.894Z,-19043.03
2023-02-12T03:39:35.418Z,-19362.69
2023-02-12T03:40:42.622Z,-19042.34
2023-02-12T03:41:56.894Z,-19040.44
2023-02-12T03:43:02.189Z,-19359.53
2023-02-12T03:44:18.619Z,-19360.41
2023-02-12T03:45:39.047Z,-19360.06
2023-02-12T03:46:51.022Z,-19359.00
2023-02-12T03:48:08.685Z,-19360.94
2023-02-12T03:49:20.429Z,-19360.41
2023-02-12T03:50:53.912Z,-19360.41
2023-02-12T03:51:58.474Z,-19039.75
2023-02-12T03:53:01.235Z,-19037.13
2023-02-12T03:54:06.991Z,-19040.09
2023-02-12T03:55:10.480Z,-19040.59
2023-02-12T03:56:19.720Z,-19041.13
2023-02-12T03:57:30.803Z,-19361.28
2023-02-12T03:58:35.801Z,-19360.41
2023-02-12T03:59:40.012Z,-19360.41
2023-02-12T04:00:43.554Z,-19360.41
2023-02-12T04:01:48.218Z,-19038.69
2023-02-12T04:02:52.971Z,-19359.00
2023-02-12T04:03:56.615Z,-19039.91
2023-02-12T04:05:06.050Z,-19362.69
2023-02-12T04:06:24.293Z,-19680.91
2023-02-12T04:07:27.410Z,-19359.00
2023-02-12T04:08:32.332Z,-19357.41
2023-02-12T04:09:35.453Z,-19356.88
2023-02-12T04:10:38.695Z,-19356.53
2023-02-12T04:12:09.547Z,-19678.03
2023-02-12T04:13:34.386Z,-19681.25
2023-02-12T04:14:52.260Z,-19683.03
2023-02-12T04:16:35.755Z,-19683.22
2023-02-12T04:18:21.067Z,-19360.06
2023-02-12T04:19:49.149Z,-19360.94
2023-02-12T04:20:59.475Z,-19679.63
2023-02-12T04:22:02.592Z,-19037.13
2023-02-12T04:23:43.040Z,-19681.63
2023-02-12T04:25:09.204Z,-19358.28
2023-02-12T04:26:24.094Z,-19037.66
2023-02-12T04:27:38.481Z,-19038.16
2023-02-12T04:28:57.929Z,-19361.13
2023-02-12T04:30:09.696Z,-19039.22
2023-02-12T04:31:25.541Z,-19362.19
2023-02-12T04:33:10.775Z,-19363.22
2023-02-12T04:34:49.898Z,-19361.81
2023-02-12T04:36:12.341Z,-19358.09
2023-02-12T04:37:39.464Z,-19360.22
2023-02-12T04:38:43.817Z,-19359.00
2023-02-12T04:39:48.827Z,-19360.41
2023-02-12T04:40:52.427Z,-19359.69
2023-02-12T04:41:58.431Z,-19039.75
2023-02-12T04:43:01.671Z,-19040.78
2023-02-12T04:44:18.480Z,-19360.41
2023-02-12T04:45:26.091Z,-19360.06
2023-02-12T04:46:28.645Z,-19041.13
2023-02-12T04:47:31.370Z,-19038.88
2023-02-12T04:48:34.926Z,-19038.69
2023-02-12T04:49:37.612Z,-19042.69
2023-02-12T04:50:43.766Z,-19363.22
2023-02-12T04:51:47.409Z,-19042.34
2023-02-12T04:52:50.062Z,-19039.22
2023-02-12T04:53:52.616Z,-19039.91
2023-02-12T04:54:55.141Z,-19040.78
2023-02-12T04:55:58.026Z,-19359.69
2023-02-12T04:57:00.975Z,-19359.34
2023-02-12T04:58:03.658Z,-19358.09
2023-02-12T04:59:06.298Z,-19358.09
2023-02-12T05:00:12.634Z,-19680.19
2023-02-12T05:01:15.372Z,-19679.28
2023-02-12T05:02:18.030Z,-19679.47
2023-02-12T05:03:20.580Z,-19680.53
2023-02-12T05:04:23.105Z,-19676.59
2023-02-12T05:05:26.445Z,-19675.88
2023-02-12T05:06:30.642Z,-19676.59
2023-02-12T05:07:33.155Z,-19353.88
2023-02-12T05:08:39.448Z,-19677.66
2023-02-12T05:09:42.310Z,-19355.63
2023-02-12T05:10:44.833Z,-19035.03
2023-02-12T05:11:47.441Z,-19034.34
2023-02-12T05:12:53.204Z,-19355.09
2023-02-12T05:13:55.846Z,-19034.34
2023-02-12T05:14:58.640Z,-19032.78
2023-02-12T05:16:04.818Z,-19354.41
2023-02-12T05:17:07.391Z,-19033.66
2023-02-12T05:18:10.157Z,-18714.25
2023-02-12T05:19:13.753Z,-18713.91
2023-02-12T05:20:16.407Z,-18711.19
2023-02-12T05:21:19.283Z,-18712.56
2023-02-12T05:22:22.046Z,-18392.81
2023-02-12T05:23:28.038Z,-18711.69
2023-02-12T05:24:30.677Z,-18393.50
2023-02-12T05:25:33.237Z,-18394.84
2023-02-12T05:26:36.691Z,-18393.50
2023-02-12T05:27:39.199Z,-18395.69
2023-02-12T05:28:42.081Z,-18395.19
2023-02-12T05:29:44.839Z,-18393.16
2023-02-12T05:30:47.412Z,-18391.13
2023-02-12T05:31:50.207Z,-18072.06
2023-02-12T05:32:52.768Z,-18072.41
2023-02-12T05:33:55.422Z,-18070.41
2023-02-12T05:34:57.926Z,-17749.03
2023-02-12T05:36:13.412Z,-18072.41
2023-02-12T05:37:16.054Z,-17429.63
2023-02-12T05:38:18.563Z,-17109.22
2023-02-12T05:39:20.964Z,-17109.06
2023-02-12T05:40:23.486Z,-16789.28
2023-02-12T05:41:26.856Z,-16790.53
2023-02-12T05:42:29.851Z,-16789.75
2023-02-12T05:43:32.488Z,-16468.06
2023-02-12T05:44:35.012Z,-16150.38
2023-02-12T05:45:38.256Z,-16150.69
2023-02-12T05:46:42.032Z,-16148.88
2023-02-12T05:47:44.619Z,-15829.91
2023-02-12T05:48:47.863Z,-15830.78
2023-02-12T05:49:50.381Z,-15511.03
2023-02-12T05:50:53.329Z,-15511.47
2023-02-12T05:51:55.902Z,-15832.88
2023-02-12T05:53:00.709Z,-16472.69
2023-02-12T05:54:06.237Z,-16473.59
2023-02-12T05:55:08.766Z,-16151.13
2023-02-12T05:56:11.398Z,-16151.88
2023-02-12T05:57:14.033Z,-16151.88
2023-02-12T05:58:16.914Z,-16471.75
2023-02-12T05:59:22.433Z,-17112.69
2023-02-12T06:00:25.201Z,-16791.44
2023-02-12T06:01:31.678Z,-17434.78
2023-02-12T06:02:35.323Z,-17112.38
2023-02-12T06:03:38.422Z,-17434.13
2023-02-12T06:04:41.282Z,-17752.63
2023-02-12T06:05:50.405Z,-17751.00
2023-02-12T06:06:54.508Z,-18073.41
2023-02-12T06:07:57.606Z,-17754.13
2023-02-12T06:09:01.858Z,-18073.41
2023-02-12T06:10:05.292Z,-18074.72
2023-02-12T06:11:13.219Z,-18713.91
2023-02-12T06:12:16.340Z,-18391.47
2023-02-12T06:13:19.458Z,-18389.78
2023-02-12T06:14:22.581Z,-18711.69
2023-02-12T06:15:25.702Z,-18708.09
2023-02-12T06:16:29.671Z,-18711.19
2023-02-12T06:17:34.708Z,-19033.13
2023-02-12T06:18:37.826Z,-18713.59
2023-02-12T06:19:40.954Z,-18391.81
2023-02-12T06:20:44.069Z,-18712.72
2023-02-12T06:21:47.562Z,-19034.00
2023-02-12T06:22:50.671Z,-18713.59
2023-02-12T06:23:54.162Z,-19034.50
2023-02-12T06:24:57.276Z,-18713.06
2023-02-12T06:26:00.414Z,-18710.66
2023-02-12T06:27:03.644Z,-19032.78
2023-02-12T06:28:06.785Z,-19031.91
2023-02-12T06:29:10.244Z,-19031.19
2023-02-12T06:30:13.965Z,-19350.84
2023-02-12T06:31:24.970Z,-19352.97
2023-02-12T06:32:28.375Z,-19031.72
2023-02-12T06:33:31.849Z,-19030.50
2023-02-12T06:34:35.693Z,-19348.91
2023-02-12T06:35:39.659Z,-19031.19
2023-02-12T06:36:45.298Z,-19030.34
2023-02-12T06:37:48.541Z,-18710.66
2023-02-12T06:38:52.140Z,-19030.84
2023-02-12T06:39:55.142Z,-18710.84
2023-02-12T06:41:01.506Z,-19031.38
2023-02-12T06:42:04.397Z,-19032.25
2023-02-12T06:43:07.270Z,-18713.59
2023-02-12T06:44:11.851Z,-19033.66
2023-02-12T06:45:14.720Z,-19034.00
2023-02-12T06:46:17.446Z,-19034.16
2023-02-12T06:47:20.124Z,-19034.00
2023-02-12T06:48:22.815Z,-19034.84
2023-02-12T06:49:25.281Z,-19352.81
2023-02-12T06:50:29.361Z,-19673.00
2023-02-12T06:51:32.495Z,-19353.50
2023-02-12T06:52:35.136Z,-19351.56
2023-02-12T06:53:38.428Z,-19351.94
2023-02-12T06:54:41.128Z,-19354.75
2023-02-12T06:55:43.695Z,-19355.47
2023-02-12T06:56:46.335Z,-19670.84
2023-02-12T06:57:49.180Z,-19672.66
2023-02-12T06:58:56.906Z,-19992.66
2023-02-12T06:59:59.436Z,-19671.56
2023-02-12T07:01:23.859Z,-19996.28
2023-02-12T07:02:26.421Z,-19673.19
2023-02-12T07:03:28.933Z,-19990.47
2023-02-12T07:04:31.463Z,-19993.00
2023-02-12T07:05:37.942Z,-19673.00
2023-02-12T07:06:40.588Z,-19993.72
2023-02-12T07:07:43.104Z,-19673.91
2023-02-12T07:08:45.623Z,-19672.66
2023-02-12T07:09:48.270Z,-19670.84
2023-02-12T07:10:51.031Z,-19989.38
2023-02-12T07:11:53.761Z,-19990.81
2023-02-12T07:12:56.328Z,-19989.00
2023-02-12T07:13:59.553Z,-19991.19
2023-02-12T07:15:02.189Z,-19989.38
2023-02-12T07:16:13.368Z,-19992.81
2023-02-12T07:17:15.967Z,-19674.06
2023-02-12T07:18:18.871Z,-19676.94
2023-02-12T07:19:21.871Z,-19994.81
2023-02-12T07:20:24.492Z,-19994.47
2023-02-12T07:21:27.039Z,-19993.56
2023-02-12T07:22:29.671Z,-19994.09
2023-02-12T07:23:33.155Z,-19994.47
2023-02-12T07:24:35.698Z,-19994.81
2023-02-12T07:25:38.699Z,-20313.00
2023-02-12T07:26:41.796Z,-20311.88
2023-02-12T07:27:44.315Z,-20315.22
2023-02-12T07:28:46.845Z,-19992.28
2023-02-12T07:29:49.599Z,-19993.19
2023-02-12T07:30:52.155Z,-19990.81
2023-02-12T07:31:54.683Z,-19992.47
2023-02-12T07:32:57.159Z,-19994.09
2023-02-12T07:34:00.886Z,-19992.66
2023-02-12T07:35:03.401Z,-19674.25
2023-02-12T07:36:09.043Z,-19996.28
2023-02-12T07:37:11.580Z,-19992.47
2023-02-12T07:38:14.206Z,-19994.28
2023-02-12T07:39:16.738Z,-19994.09
2023-02-12T07:40:19.367Z,-19993.38
2023-02-12T07:41:24.785Z,-19995.91
2023-02-12T07:42:29.353Z,-19994.47
2023-02-12T07:43:31.848Z,-20317.78
2023-02-12T07:44:34.611Z,-19996.09
2023-02-12T07:45:39.670Z,-20315.94
2023-02-12T07:46:49.151Z,-20314.84
2023-02-12T07:47:52.015Z,-20314.47
2023-02-12T07:48:54.782Z,-20313.19
2023-02-12T07:49:57.299Z,-19993.00
2023-02-12T07:51:07.386Z,-20319.81
2023-02-12T07:52:12.212Z,-20317.06
2023-02-12T07:53:15.799Z,-19994.47
2023-02-12T07:54:18.694Z,-20316.88
2023-02-12T07:55:21.309Z,-20315.75
2023-02-12T07:56:29.612Z,-20317.97
2023-02-12T07:57:32.233Z,-20318.16
2023-02-12T07:58:35.121Z,-20317.25
2023-02-12T07:59:37.761Z,-20317.59
2023-02-12T08:00:40.405Z,-20317.06
2023-02-12T08:01:46.879Z,-20316.69
2023-02-12T08:02:55.402Z,-20317.44
2023-02-12T08:04:00.739Z,-20317.06
2023-02-12T08:05:03.457Z,-20319.25
2023-02-12T08:06:13.055Z,-20318.53
2023-02-12T08:07:16.170Z,-20319.63
2023-02-12T08:08:19.302Z,-20320.38
2023-02-12T08:09:27.974Z,-20322.59
2023-02-12T08:10:32.500Z,-20322.59
2023-02-12T08:11:35.975Z,-20322.03
2023-02-12T08:12:39.103Z,-20321.84
2023-02-12T08:13:42.824Z,-20320.38
2023-02-12T08:14:45.946Z,-20321.47
2023-02-12T08:15:49.206Z,-20322.97
2023-02-12T08:16:52.875Z,-20324.09
2023-02-12T08:17:56.030Z,-20324.09
2023-02-12T08:19:10.736Z,-20323.19
2023-02-12T08:20:19.474Z,-20325.75
2023-02-12T08:21:27.832Z,-20324.28
2023-02-12T08:22:30.959Z,-20323.91
2023-02-12T08:23:34.798Z,-20326.31
2023-02-12T08:24:38.045Z,-20323.31
2023-02-12T08:25:41.280Z,-20322.22
2023-02-12T08:26:44.879Z,-20324.06
2023-02-12T08:27:48.003Z,-20322.22
2023-02-12T08:28:55.804Z,-20322.63
2023-02-12T08:29:58.930Z,-20319.25
2023-02-12T08:31:08.134Z,-20327.06
2023-02-12T08:32:14.404Z,-20322.22
2023-02-12T08:33:17.775Z,-20325.19
2023-02-12T08:34:24.031Z,-20325.38
2023-02-12T08:35:28.337Z,-20325.00
2023-02-12T08:36:38.418Z,-20327.75
2023-02-12T08:37:41.542Z,-20324.81
2023-02-12T08:38:46.714Z,-20329.63
2023-02-12T08:39:49.705Z,-20329.59
2023-02-12T08:40:52.971Z,-20327.94
2023-02-12T08:41:57.517Z,-20331.28
2023-02-12T08:43:00.645Z,-20334.06
2023-02-12T08:44:05.438Z,-20333.16
2023-02-12T08:45:08.910Z,-20330.38
2023-02-12T08:46:15.463Z,-20332.03
2023-02-12T08:47:18.158Z,-20335.53
2023-02-12T08:48:21.034Z,-20332.78
2023-02-12T08:49:26.437Z,-20337.03
2023-02-12T08:50:29.199Z,-20338.69
2023-02-12T08:51:36.057Z,-20341.81
2023-02-12T08:52:38.740Z,-20344.41
2023-02-12T08:53:44.849Z,-20345.31
2023-02-12T08:54:47.500Z,-20346.25
2023-02-12T08:55:50.802Z,-20344.94
2023-02-12T08:56:59.455Z,-20348.66
2023-02-12T08:58:03.089Z,-20341.44
2023-02-12T08:59:07.608Z,-20347.00
2023-02-12T09:00:10.893Z,-20345.13
2023-02-12T09:01:16.934Z,-20341.81
2023-02-12T09:02:19.421Z,-20342.94
2023-02-12T09:03:22.173Z,-20346.25
2023-02-12T09:04:27.113Z,-20345.50
2023-02-12T09:05:29.817Z,-20346.25
2023-02-12T09:06:34.500Z,-20348.66
2023-02-12T09:07:37.055Z,-20350.31
2023-02-12T09:08:40.174Z,-20350.84
2023-02-12T09:09:42.708Z,-20346.63
2023-02-12T09:10:47.017Z,-20349.56
2023-02-12T09:11:53.052Z,-20349.38
2023-02-12T09:12:55.541Z,-20346.44
2023-02-12T09:14:00.576Z,-20349.75
2023-02-12T09:15:03.700Z,-20350.13
2023-02-12T09:16:07.202Z,-20351.41
2023-02-12T09:17:09.830Z,-20348.47
2023-02-12T09:18:14.847Z,-20352.53
2023-02-12T09:19:19.306Z,-20354.00
2023-02-12T09:20:21.839Z,-20349.19
2023-02-12T09:21:24.704Z,-20347.72
2023-02-12T09:22:27.239Z,-20347.72
2023-02-12T09:23:30.109Z,-20345.69
2023-02-12T09:24:33.114Z,-20348.47
2023-02-12T09:25:40.672Z,-20346.06
2023-02-12T09:26:43.429Z,-20345.69
2023-02-12T09:27:45.948Z,-20348.09
2023-02-12T09:28:50.170Z,-20350.69
2023-02-12T09:29:52.812Z,-20350.13
2023-02-12T09:30:55.499Z,-20351.41
2023-02-12T09:31:58.230Z,-20349.56
2023-02-12T09:33:00.953Z,-20350.50
2023-02-12T09:34:07.554Z,-20353.63
2023-02-12T09:35:12.724Z,-20354.38
2023-02-12T09:36:17.037Z,-20349.94
2023-02-12T09:37:19.557Z,-20349.19
2023-02-12T09:38:22.075Z,-20348.28
2023-02-12T09:39:24.615Z,-20350.84
2023-02-12T09:40:47.412Z,-20348.47
2023-02-12T09:41:52.800Z,-20349.56
2023-02-12T09:43:29.042Z,-20347.34
2023-02-12T09:45:00.492Z,-20347.53
2023-02-12T09:46:14.664Z,-20352.34
2023-02-12T09:47:17.171Z,-20351.03
2023-02-12T09:48:53.771Z,-20351.78
2023-02-12T09:50:03.370Z,-20348.66
2023-02-12T09:51:08.776Z,-20350.84
2023-02-12T09:52:18.146Z,-20356.03
2023-02-12T09:53:25.096Z,-20350.69
2023-02-12T09:54:38.424Z,-20350.69
2023-02-12T09:55:41.190Z,-20352.91
2023-02-12T09:56:50.187Z,-20358.44
2023-02-12T09:57:54.905Z,-20356.03
2023-02-12T09:59:01.369Z,-20354.75
2023-02-12T10:00:24.873Z,-20353.81
2023-02-12T10:01:28.531Z,-20354.56
2023-02-12T10:02:31.365Z,-20350.69
2023-02-12T10:03:34.241Z,-20351.03
2023-02-12T10:04:37.044Z,-20349.56
2023-02-12T10:05:48.404Z,-20351.41
2023-02-12T10:07:18.045Z,-20351.78
2023-02-12T10:08:49.129Z,-20346.81
2023-02-12T10:10:21.180Z,-20349.38
2023-02-12T10:11:42.414Z,-20352.16
2023-02-12T10:12:58.506Z,-20349.94
2023-02-12T10:14:35.229Z,-20352.16
2023-02-12T10:15:59.921Z,-20353.25
2023-02-12T10:17:42.547Z,-20354.75
2023-02-12T10:19:06.813Z,-20359.00
2023-02-12T10:20:40.336Z,-20356.59
2023-02-12T10:21:58.270Z,-20357.34
2023-02-12T10:23:10.038Z,-20359.53
2023-02-12T10:24:44.724Z,-20359.19
2023-02-12T10:25:54.702Z,-20356.59
2023-02-12T10:27:03.681Z,-20351.03
2023-02-12T10:28:15.005Z,-20346.44
2023-02-12T10:29:22.520Z,-20351.03
2023-02-12T10:30:48.637Z,-20350.69
2023-02-12T10:33:08.486Z,-20352.53
2023-02-12T10:34:23.131Z,-20351.97
2023-02-12T10:35:26.976Z,-20350.50
2023-02-12T10:36:35.736Z,-20349.94
2023-02-12T10:37:52.666Z,-20345.13
2023-02-12T10:39:24.098Z,-20345.69
2023-02-12T10:40:33.214Z,-20346.44
2023-02-12T10:41:40.056Z,-20345.50
2023-02-12T10:42:46.789Z,-20342.38
2023-02-12T10:43:50.022Z,-20344.41
2023-02-12T10:44:53.144Z,-20344.22
2023-02-12T10:45:56.570Z,-20347.91
2023-02-12T10:46:59.505Z,-20348.09
2023-02-12T10:48:11.027Z,-20348.09
2023-02-12T10:49:16.912Z,-20349.38
2023-02-12T10:50:45.122Z,-20350.13
2023-02-12T10:52:11.205Z,-20351.97
2023-02-12T10:53:25.795Z,-20351.78
2023-02-12T10:54:38.448Z,-20349.94
2023-02-12T10:55:40.924Z,-20347.34
2023-02-12T10:56:43.680Z,-20350.50
2023-02-12T10:57:46.448Z,-20342.19
2023-02-12T10:59:01.841Z,-20346.25
2023-02-12T11:00:37.692Z,-20345.50
2023-02-12T11:01:42.197Z,-20347.53
2023-02-12T11:03:05.455Z,-20347.72
2023-02-12T11:04:40.594Z,-20351.78
2023-02-12T11:05:44.940Z,-20351.97
2023-02-12T11:06:59.666Z,-20358.44
2023-02-12T11:08:02.453Z,-20358.81
2023-02-12T11:09:28.148Z,-20363.22
2023-02-12T11:10:39.994Z,-20366.56
2023-02-12T11:11:42.863Z,-20368.03
2023-02-12T11:12:48.515Z,-20372.09
2023-02-12T11:13:58.467Z,-20374.13
2023-02-12T11:15:17.597Z,-20374.50
2023-02-12T11:16:37.985Z,-20381.88
2023-02-12T11:17:43.628Z,-20377.25
2023-02-12T11:18:57.421Z,-20383.34
2023-02-12T11:20:18.067Z,-20390.56
2023-02-12T11:21:23.582Z,-20397.94
2023-02-12T11:22:26.354Z,-20398.50
2023-02-12T11:23:39.907Z,-20415.28
2023-02-12T11:24:42.428Z,-20413.81
2023-02-12T11:25:56.705Z,-20416.38
2023-02-12T11:27:24.795Z,-20409.19
2023-02-12T11:28:28.744Z,-19758.03
2023-02-12T11:29:33.791Z,-19115.84
2023-02-12T11:30:36.792Z,-19113.56
2023-02-12T11:31:41.754Z,-18790.44
2023-02-12T11:32:44.597Z,-18791.81
2023-02-12T11:33:47.111Z,-18793.69
2023-02-12T11:35:24.194Z,-16862.69
2023-02-12T11:36:28.157Z,-16863.94
2023-02-12T11:37:36.569Z,-16543.31
2023-02-12T11:38:52.279Z,-17186.41
2023-02-12T11:39:54.797Z,-16863.31
2023-02-12T11:41:01.640Z,-16861.75
2023-02-12T11:42:22.694Z,-16857.06
2023-02-12T11:43:27.678Z,-17501.47
2023-02-12T11:44:37.890Z,-18141.75
2023-02-12T11:45:52.171Z,-19106.78
2023-02-12T11:47:02.275Z,-19751.91
2023-02-12T11:48:33.125Z,-19433.41
2023-02-12T11:49:43.997Z,-19112.00
2023-02-12T11:50:49.785Z,-18789.75
2023-02-12T11:51:53.255Z,-18787.34
2023-02-12T11:53:09.941Z,-19433.22
2023-02-12T11:54:20.509Z,-19109.56
2023-02-12T11:55:33.918Z,-19434.28
2023-02-12T11:56:45.953Z,-17822.03
2023-02-12T11:57:54.850Z,-18789.41
2023-02-12T11:59:12.825Z,-18147.56
2023-02-12T12:00:21.346Z,-18469.50
2023-02-12T12:01:34.934Z,-17502.44
2023-02-12T12:02:42.986Z,-18147.56
2023-02-12T12:04:03.609Z,-17504.38
2023-02-12T12:05:15.965Z,-17828.91
2023-02-12T12:06:34.084Z,-17185.59
2023-02-12T12:07:39.479Z,-16862.06
2023-02-12T12:08:48.479Z,-17507.75
2023-02-12T12:10:12.239Z,-17184.97
2023-02-12T12:11:47.047Z,-16858.31
2023-02-12T12:12:56.772Z,-17179.75
2023-02-12T12:14:13.807Z,-17815.66
2023-02-12T12:15:42.739Z,-19419.44
2023-02-12T12:17:11.890Z,-20388.66
2023-02-12T12:19:00.378Z,-20387.59
2023-02-12T12:20:26.538Z,-20385.38
2023-02-12T12:21:47.419Z,-20391.09
2023-02-12T12:23:01.347Z,-20394.06
2023-02-12T12:24:11.782Z,-20393.50
2023-02-12T12:25:32.785Z,-20394.06
2023-02-12T12:26:36.027Z,-20393.50
2023-02-12T12:28:10.489Z,-20390.16
2023-02-12T12:29:40.113Z,-20068.16
2023-02-12T12:31:09.506Z,-20387.75
2023-02-12T12:32:16.966Z,-20064.34
2023-02-12T12:33:25.717Z,-20389.22
2023-02-12T12:34:30.049Z,-20065.44
2023-02-12T12:35:54.734Z,-20393.09
2023-02-12T12:37:13.491Z,-20070.16
2023-02-12T12:38:55.611Z,-20395.50
2023-02-12T12:40:23.569Z,-20080.72
2023-02-12T12:41:41.338Z,-18475.44
2023-02-12T12:43:08.820Z,-16870.00
2023-02-12T12:44:30.668Z,-15906.00
2023-02-12T12:45:48.446Z,-14939.38
2023-02-12T12:47:11.825Z,-14940.50
2023-02-12T12:48:35.226Z,-15264.47
2023-02-12T12:49:47.826Z,-13653.91
2023-02-12T12:51:15.443Z,-14300.34
2023-02-12T12:52:27.910Z,-13660.38
2023-02-12T12:53:58.156Z,-13340.03
2023-02-12T12:55:03.793Z,-12696.41
2023-02-12T12:56:20.726Z,-13666.09
2023-02-12T12:57:42.805Z,-14314.38
2023-02-12T12:58:54.202Z,-12709.56
2023-02-12T13:00:06.732Z,-10778.44
2023-02-12T13:01:25.990Z,-7555.72
2023-02-12T13:02:38.502Z,-3039.75
2023-02-12T13:04:14.428Z,-2071.97
2023-02-12T13:05:48.328Z,-2072.25
2023-02-12T13:07:32.790Z,-1104.31
2023-02-12T13:09:13.112Z,-1104.25
2023-02-12T13:10:33.379Z,-3042.53
2023-02-12T13:12:06.596Z,-2720.78
2023-02-12T13:13:21.117Z,2124.81